createdAt,value
2017-06-25T00:00:27.343Z,20.30
2017-06-25T00:02:53.744Z,20.40
2017-06-25T00:05:20.188Z,20.40
2017-06-25T00:07:46.644Z,20.40
2017-06-25T00:10:13.048Z,20.40
2017-06-25T00:12:39.476Z,20.50
2017-06-25T00:15:05.880Z,20.60
2017-06-25T00:17:33.071Z,20.60
2017-06-25T00:19:59.529Z,20.60
2017-06-25T00:22:25.936Z,20.60
2017-06-25T00:24:52.336Z,20.50
2017-06-25T00:27:19.563Z,20.40
2017-06-25T00:29:45.968Z,20.30
2017-06-25T00:32:12.376Z,20.30
2017-06-25T00:34:38.823Z,20.30
2017-06-25T00:37:05.256Z,20.40
2017-06-25T00:39:31.655Z,20.40
2017-06-25T00:41:58.835Z,20.50
2017-06-25T00:44:25.231Z,20.50
2017-06-25T00:46:52.432Z,20.50
2017-06-25T00:49:18.934Z,20.50
2017-06-25T00:51:45.331Z,20.50
2017-06-25T00:54:29.616Z,20.50
2017-06-25T00:56:56.709Z,20.60
2017-06-25T00:59:23.115Z,20.60
2017-06-25T01:01:49.655Z,20.60
2017-06-25T01:04:16.060Z,20.60
2017-06-25T01:06:42.536Z,20.50
2017-06-25T01:09:08.959Z,20.40
2017-06-25T01:11:35.347Z,20.40
2017-06-25T01:14:02.513Z,20.40
2017-06-25T01:16:28.949Z,20.40
2017-06-25T01:18:55.387Z,20.50
2017-06-25T01:21:21.779Z,20.40
2017-06-25T01:23:48.184Z,20.50
2017-06-25T01:26:14.625Z,20.50
2017-06-25T01:28:41.064Z,20.50
2017-06-25T01:31:07.500Z,20.50
2017-06-25T01:33:33.932Z,20.60
2017-06-25T01:36:00.341Z,20.60
2017-06-25T01:38:26.827Z,20.60
2017-06-25T01:40:53.976Z,20.70
2017-06-25T01:43:21.139Z,20.60
2017-06-25T01:45:47.734Z,20.60
2017-06-25T01:48:14.268Z,20.50
2017-06-25T01:50:40.712Z,20.50
2017-06-25T01:53:07.179Z,20.50
2017-06-25T01:55:33.669Z,20.60
2017-06-25T01:58:00.081Z,20.60
2017-06-25T02:00:26.495Z,20.60
2017-06-25T02:02:52.944Z,20.60
2017-06-25T02:05:19.336Z,20.60
2017-06-25T02:07:46.576Z,20.60
2017-06-25T02:10:13.865Z,20.60
2017-06-25T02:12:40.261Z,20.60
2017-06-25T02:15:07.448Z,20.50
2017-06-25T02:17:33.959Z,20.50
2017-06-25T02:20:00.405Z,20.60
2017-06-25T02:22:26.825Z,20.50
2017-06-25T02:24:53.977Z,20.30
2017-06-25T02:27:20.505Z,20.20
2017-06-25T02:29:47.641Z,19.90
2017-06-25T02:32:14.043Z,19.90
2017-06-25T02:34:40.492Z,20.00
2017-06-25T02:37:06.928Z,20.10
2017-06-25T02:39:33.344Z,20.20
2017-06-25T02:41:59.781Z,20.30
2017-06-25T02:44:26.217Z,20.30
2017-06-25T02:46:52.877Z,20.30
2017-06-25T02:49:19.323Z,20.40
2017-06-25T02:51:46.456Z,20.40
2017-06-25T02:54:13.008Z,20.30
2017-06-25T02:56:40.157Z,20.40
2017-06-25T02:59:07.304Z,20.10
2017-06-25T03:01:34.480Z,20.00
2017-06-25T03:04:00.917Z,19.90
2017-06-25T03:06:27.324Z,19.90
2017-06-25T03:08:54.717Z,19.80
2017-06-25T03:11:21.124Z,19.80
2017-06-25T03:13:47.536Z,19.90
2017-06-25T03:16:14.772Z,19.90
2017-06-25T03:18:41.288Z,19.90
2017-06-25T03:21:07.686Z,19.90
2017-06-25T03:23:34.152Z,20.00
2017-06-25T03:26:00.569Z,19.90
2017-06-25T03:28:27.029Z,20.00
2017-06-25T03:30:53.492Z,20.00
2017-06-25T03:33:20.652Z,20.00
2017-06-25T03:35:47.812Z,20.00
2017-06-25T03:38:14.295Z,20.00
2017-06-25T03:40:40.744Z,20.10
2017-06-25T03:43:07.148Z,20.00
2017-06-25T03:45:33.620Z,20.10
2017-06-25T03:48:00.861Z,20.00
2017-06-25T03:50:27.257Z,20.00
2017-06-25T03:52:53.724Z,20.10
2017-06-25T03:55:20.120Z,20.00
2017-06-25T03:57:46.555Z,20.10
2017-06-25T04:00:13.001Z,20.10
2017-06-25T04:02:39.398Z,20.10
2017-06-25T04:05:05.847Z,20.20
2017-06-25T04:07:32.313Z,20.20
2017-06-25T04:09:58.735Z,20.20
2017-06-25T04:12:25.192Z,20.20
2017-06-25T04:14:51.594Z,20.20
2017-06-25T04:17:18.148Z,20.20
2017-06-25T04:19:44.593Z,20.20
2017-06-25T04:22:11.011Z,20.10
2017-06-25T04:24:37.453Z,20.20
2017-06-25T04:27:03.861Z,20.20
2017-06-25T04:29:30.277Z,20.20
2017-06-25T04:31:56.815Z,20.20
2017-06-25T04:34:23.204Z,20.20
2017-06-25T04:36:50.412Z,20.20
2017-06-25T04:39:16.844Z,20.20
2017-06-25T04:41:43.232Z,20.20
2017-06-25T04:44:10.475Z,20.10
2017-06-25T04:46:36.983Z,20.10
2017-06-25T04:49:03.388Z,20.10
2017-06-25T04:51:29.834Z,20.10
2017-06-25T04:53:56.237Z,20.00
2017-06-25T04:56:22.673Z,20.10
2017-06-25T04:58:49.164Z,20.10
2017-06-25T05:01:15.584Z,20.10
2017-06-25T05:03:42.032Z,20.20
2017-06-25T05:06:08.456Z,20.20
2017-06-25T05:08:34.853Z,20.20
2017-06-25T05:11:01.272Z,20.20
2017-06-25T05:13:27.669Z,20.20
2017-06-25T05:15:54.855Z,20.30
2017-06-25T05:18:21.324Z,20.30
2017-06-25T05:20:47.753Z,20.30
2017-06-25T05:23:14.172Z,20.40
2017-06-25T05:25:40.580Z,20.40
2017-06-25T05:28:07.084Z,20.50
2017-06-25T05:30:33.484Z,20.50
2017-06-25T05:32:59.936Z,20.60
2017-06-25T05:35:26.348Z,20.60
2017-06-25T05:37:52.772Z,20.60
2017-06-25T05:40:19.236Z,20.60
2017-06-25T05:42:45.672Z,20.60
2017-06-25T05:45:12.064Z,20.70
2017-06-25T05:47:38.544Z,20.70
2017-06-25T05:50:04.970Z,20.70
2017-06-25T05:52:31.385Z,20.70
2017-06-25T05:54:57.831Z,20.80
2017-06-25T05:57:24.244Z,20.80
2017-06-25T05:59:50.692Z,20.80
2017-06-25T06:02:17.105Z,20.80
2017-06-25T06:04:43.508Z,20.90
2017-06-25T06:07:09.988Z,20.90
2017-06-25T06:09:36.452Z,20.80
2017-06-25T06:12:03.718Z,20.90
2017-06-25T06:14:30.121Z,20.90
2017-06-25T06:16:56.616Z,20.90
2017-06-25T06:19:23.044Z,21.00
2017-06-25T06:21:49.487Z,21.10
2017-06-25T06:24:15.883Z,21.10
2017-06-25T06:26:42.505Z,21.10
2017-06-25T06:29:09.630Z,21.10
2017-06-25T06:31:36.019Z,21.20
2017-06-25T06:34:02.439Z,21.30
2017-06-25T06:36:28.852Z,21.30
2017-06-25T06:38:56.108Z,21.40
2017-06-25T06:41:23.232Z,21.30
2017-06-25T06:43:49.637Z,21.30
2017-06-25T06:46:16.080Z,21.30
2017-06-25T06:48:42.500Z,21.30
2017-06-25T06:51:09.189Z,21.30
2017-06-25T06:53:35.643Z,21.30
2017-06-25T06:56:02.184Z,21.30
2017-06-25T06:58:28.779Z,21.40
2017-06-25T07:00:56.076Z,21.50
2017-06-25T07:03:22.684Z,21.50
2017-06-25T07:05:49.260Z,21.50
2017-06-25T07:08:16.768Z,21.50
2017-06-25T07:10:43.972Z,21.50
2017-06-25T07:13:10.377Z,21.50
2017-06-25T07:15:36.792Z,21.60
2017-06-25T07:18:04.029Z,21.50
2017-06-25T07:20:30.432Z,21.40
2017-06-25T07:22:56.877Z,21.40
2017-06-25T07:25:23.269Z,21.40
2017-06-25T07:27:49.753Z,21.40
2017-06-25T07:30:16.485Z,21.50
2017-06-25T07:32:42.996Z,21.70
2017-06-25T07:35:09.688Z,21.70
2017-06-25T07:37:36.641Z,21.80
2017-06-25T07:40:03.229Z,21.80
2017-06-25T07:42:29.790Z,21.90
2017-06-25T07:44:56.185Z,22.00
2017-06-25T07:47:22.619Z,22.00
2017-06-25T07:49:49.087Z,22.00
2017-06-25T07:52:15.495Z,22.00
2017-06-25T07:54:42.001Z,22.10
2017-06-25T07:57:09.564Z,22.00
2017-06-25T07:59:36.029Z,22.10
2017-06-25T08:02:02.749Z,22.10
2017-06-25T08:04:29.243Z,22.10
2017-06-25T08:06:56.465Z,22.20
2017-06-25T08:09:22.907Z,22.20
2017-06-25T08:11:50.072Z,22.30
2017-06-25T08:14:16.512Z,22.30
2017-06-25T08:16:42.988Z,22.50
2017-06-25T08:19:09.481Z,22.60
2017-06-25T08:21:35.935Z,22.70
2017-06-25T08:24:02.368Z,22.80
2017-06-25T08:26:28.820Z,22.90
2017-06-25T08:28:55.265Z,23.00
2017-06-25T08:31:21.736Z,23.10
2017-06-25T08:33:48.137Z,23.20
2017-06-25T08:36:14.520Z,23.30
2017-06-25T08:41:17.708Z,23.30
2017-06-25T08:43:44.241Z,23.40
2017-06-25T08:46:10.644Z,23.40
2017-06-25T08:48:37.186Z,23.50
2017-06-25T08:51:03.745Z,23.60
2017-06-25T08:53:30.867Z,23.60
2017-06-25T08:55:57.406Z,23.70
2017-06-25T08:58:23.992Z,23.80
2017-06-25T09:00:50.409Z,23.90
2017-06-25T09:03:17.604Z,24.00
2017-06-25T09:05:44.004Z,24.00
2017-06-25T09:08:11.200Z,24.20
2017-06-25T09:10:37.636Z,24.20
2017-06-25T09:13:04.037Z,24.30
2017-06-25T09:15:30.440Z,24.40
2017-06-25T09:17:57.695Z,24.60
2017-06-25T09:20:24.844Z,24.70
2017-06-25T09:22:51.259Z,24.70
2017-06-25T09:25:17.716Z,24.90
2017-06-25T09:27:44.213Z,24.90
2017-06-25T09:30:10.618Z,25.00
2017-06-25T09:32:37.053Z,24.90
2017-06-25T09:35:03.461Z,24.80
2017-06-25T09:37:29.949Z,24.70
2017-06-25T09:39:56.388Z,24.70
2017-06-25T09:42:22.788Z,24.70
2017-06-25T09:44:49.215Z,24.70
2017-06-25T09:47:15.720Z,24.80
2017-06-25T09:49:42.945Z,25.00
2017-06-25T09:52:09.473Z,25.00
2017-06-25T09:54:35.904Z,25.00
2017-06-25T09:57:02.491Z,25.00
2017-06-25T09:59:28.940Z,25.10
2017-06-25T10:01:55.357Z,25.20
2017-06-25T10:04:21.913Z,25.10
2017-06-25T10:06:48.356Z,25.20
2017-06-25T10:09:14.769Z,25.30
2017-06-25T10:11:41.200Z,25.30
2017-06-25T10:14:07.628Z,25.40
2017-06-25T10:16:34.028Z,25.30
2017-06-25T10:19:01.215Z,25.40
2017-06-25T10:21:27.612Z,25.30
2017-06-25T10:23:54.768Z,25.40
2017-06-25T10:26:21.961Z,25.50
2017-06-25T10:28:48.504Z,25.40
2017-06-25T10:31:15.036Z,25.30
2017-06-25T10:33:41.444Z,25.20
2017-06-25T10:36:07.836Z,25.30
2017-06-25T10:38:34.388Z,25.30
2017-06-25T10:41:01.520Z,25.20
2017-06-25T10:43:27.933Z,25.20
2017-06-25T10:48:27.448Z,25.10
2017-06-25T10:50:53.893Z,25.00
2017-06-25T10:53:20.304Z,24.90
2017-06-25T10:55:46.735Z,24.80
2017-06-25T10:58:13.297Z,24.70
2017-06-25T11:00:39.730Z,24.60
2017-06-25T11:03:06.142Z,24.60
2017-06-25T11:05:32.612Z,24.50
2017-06-25T11:07:59.130Z,24.40
2017-06-25T11:10:25.571Z,24.30
2017-06-25T11:12:52.248Z,24.20
2017-06-25T11:15:18.696Z,24.10
2017-06-25T11:17:46.340Z,23.80
2017-06-25T11:20:13.115Z,23.60
2017-06-25T11:22:39.689Z,23.30
2017-06-25T11:25:06.234Z,22.90
2017-06-25T11:27:33.004Z,22.00
2017-06-25T11:30:00.320Z,20.90
2017-06-25T11:32:26.857Z,20.80
2017-06-25T11:34:53.540Z,20.70
2017-06-25T11:37:20.193Z,20.50
2017-06-25T11:39:46.808Z,20.40
2017-06-25T11:42:13.396Z,20.40
2017-06-25T11:44:41.792Z,20.40
2017-06-25T11:47:08.589Z,20.40
2017-06-25T11:49:35.828Z,20.50
2017-06-25T11:52:02.445Z,20.50
2017-06-25T11:54:29.225Z,20.40
2017-06-25T11:56:55.896Z,20.40
2017-06-25T11:59:23.177Z,20.30
2017-06-25T12:01:49.806Z,20.30
2017-06-25T12:04:16.343Z,20.30
2017-06-25T12:06:43.496Z,20.30
2017-06-25T12:09:10.132Z,20.30
2017-06-25T12:11:36.545Z,20.30
2017-06-25T12:14:03.137Z,20.20
2017-06-25T12:16:30.569Z,20.20
2017-06-25T12:18:58.199Z,20.20
2017-06-25T12:21:24.856Z,20.20
2017-06-25T12:23:51.455Z,20.10
2017-06-25T12:26:18.000Z,20.10
2017-06-25T12:28:51.624Z,20.00
2017-06-25T12:31:18.882Z,20.00
2017-06-25T12:33:46.305Z,20.00
2017-06-25T12:36:13.608Z,20.00
2017-06-25T12:38:40.198Z,20.00
2017-06-25T12:41:07.412Z,19.90
2017-06-25T12:43:33.865Z,19.90
2017-06-25T12:46:00.492Z,19.90
2017-06-25T12:48:27.105Z,19.90
2017-06-25T12:50:53.667Z,19.90
2017-06-25T12:53:20.233Z,19.70
2017-06-25T12:55:46.808Z,19.60
2017-06-25T12:58:13.744Z,19.70
2017-06-25T13:00:40.362Z,19.80
2017-06-25T13:03:06.909Z,19.80
2017-06-25T13:05:33.349Z,19.80
2017-06-25T13:07:59.904Z,19.90
2017-06-25T13:10:26.345Z,20.00
2017-06-25T13:12:52.756Z,20.00
2017-06-25T13:15:19.220Z,20.00
2017-06-25T13:17:45.673Z,20.00
2017-06-25T13:20:12.132Z,20.10
2017-06-25T13:22:38.567Z,20.30
2017-06-25T13:25:04.964Z,20.40
2017-06-25T13:27:31.468Z,20.40
2017-06-25T13:29:57.881Z,20.50
2017-06-25T13:32:25.032Z,20.70
2017-06-25T13:34:51.521Z,20.60
2017-06-25T13:37:17.964Z,20.70
2017-06-25T13:39:44.387Z,20.80
2017-06-25T13:42:10.833Z,20.90
2017-06-25T13:44:37.264Z,21.00
2017-06-25T13:47:03.733Z,21.10
2017-06-25T13:49:30.149Z,21.10
2017-06-25T13:51:56.553Z,21.10
2017-06-25T13:54:22.998Z,21.30
2017-06-25T13:56:49.527Z,21.40
2017-06-25T13:59:15.928Z,21.50
2017-06-25T14:01:42.635Z,21.60
2017-06-25T14:04:09.245Z,21.70
2017-06-25T14:06:35.709Z,21.70
2017-06-25T14:09:02.352Z,21.80
2017-06-25T14:11:28.806Z,21.80
2017-06-25T14:13:55.347Z,21.70
2017-06-25T14:16:21.747Z,21.70
2017-06-25T14:18:48.984Z,21.60
2017-06-25T14:21:15.432Z,21.60
2017-06-25T14:23:42.593Z,21.50
2017-06-25T14:26:09.004Z,21.50
2017-06-25T14:28:36.217Z,21.40
2017-06-25T14:31:02.618Z,21.40
2017-06-25T14:33:29.181Z,21.40
2017-06-25T14:35:55.611Z,21.40
2017-06-25T14:38:22.038Z,21.30
2017-06-25T14:40:48.508Z,21.40
2017-06-25T14:43:14.964Z,21.30
2017-06-25T14:45:42.100Z,21.30
2017-06-25T14:48:09.348Z,21.30
2017-06-25T14:50:35.744Z,21.30
2017-06-25T14:53:02.211Z,21.30
2017-06-25T14:55:28.657Z,21.30
2017-06-25T14:57:55.861Z,21.20
2017-06-25T15:00:22.312Z,21.20
2017-06-25T15:02:49.205Z,21.20
2017-06-25T15:05:15.936Z,21.20
2017-06-25T15:07:42.425Z,21.30
2017-06-25T15:10:08.868Z,21.20
2017-06-25T15:12:35.312Z,21.30
2017-06-25T15:15:01.721Z,21.30
2017-06-25T15:17:28.154Z,21.30
2017-06-25T15:19:54.580Z,21.40
2017-06-25T15:22:20.985Z,21.40
2017-06-25T15:24:47.484Z,21.50
2017-06-25T15:27:13.976Z,21.50
2017-06-25T15:29:40.467Z,21.60
2017-06-25T15:32:07.700Z,21.70
2017-06-25T15:34:34.140Z,21.70
2017-06-25T15:37:01.352Z,21.80
2017-06-25T15:39:27.788Z,21.70
2017-06-25T15:41:54.216Z,21.80
2017-06-25T15:44:20.955Z,21.80
2017-06-25T15:46:49.113Z,21.90
2017-06-25T15:49:15.577Z,21.90
2017-06-25T15:51:41.977Z,21.90
2017-06-25T15:54:08.420Z,21.80
2017-06-25T15:56:36.687Z,21.80
2017-06-25T15:59:03.508Z,21.80
2017-06-25T16:01:30.068Z,21.80
2017-06-25T16:03:57.264Z,21.80
2017-06-25T16:06:23.667Z,21.80
2017-06-25T16:08:50.127Z,21.80
2017-06-25T16:11:16.528Z,21.90
2017-06-25T16:13:42.955Z,21.90
2017-06-25T16:16:09.372Z,21.90
2017-06-25T16:18:35.887Z,21.90
2017-06-25T16:21:03.012Z,21.90
2017-06-25T16:23:29.435Z,21.90
2017-06-25T16:25:55.875Z,22.00
2017-06-25T16:28:22.397Z,22.00
2017-06-25T16:30:48.785Z,21.90
2017-06-25T16:33:15.235Z,22.00
2017-06-25T16:35:41.633Z,21.90
2017-06-25T16:38:08.827Z,22.00
2017-06-25T16:40:35.271Z,22.00
2017-06-25T16:43:01.663Z,22.10
2017-06-25T16:45:28.072Z,22.10
2017-06-25T16:47:55.427Z,22.00
2017-06-25T16:50:22.569Z,22.00
2017-06-25T16:52:48.958Z,22.00
2017-06-25T16:55:15.382Z,22.00
2017-06-25T16:57:41.824Z,22.10
2017-06-25T17:00:08.314Z,22.10
2017-06-25T17:02:35.465Z,22.10
2017-06-25T17:05:02.627Z,22.00
2017-06-25T17:07:29.232Z,22.00
2017-06-25T17:09:55.661Z,21.90
2017-06-25T17:12:22.072Z,22.00
2017-06-25T17:14:48.520Z,22.00
2017-06-25T17:17:14.941Z,21.80
2017-06-25T17:19:41.392Z,21.80
2017-06-25T17:22:07.809Z,21.80
2017-06-25T17:24:34.219Z,21.80
2017-06-25T17:27:00.769Z,21.90
2017-06-25T17:29:27.202Z,21.80
2017-06-25T17:31:53.608Z,21.80
2017-06-25T17:34:20.043Z,21.80
2017-06-25T17:36:46.499Z,21.80
2017-06-25T17:39:12.997Z,21.70
2017-06-25T17:41:39.432Z,21.80
2017-06-25T17:44:05.838Z,21.80
2017-06-25T17:46:32.237Z,21.80
2017-06-25T17:48:58.701Z,21.80
2017-06-25T17:51:25.105Z,21.80
2017-06-25T17:53:51.493Z,21.80
2017-06-25T17:56:17.944Z,21.70
2017-06-25T17:58:44.405Z,21.70
2017-06-25T18:01:10.809Z,21.70
2017-06-25T18:03:37.344Z,21.70
2017-06-25T18:06:03.719Z,21.60
2017-06-25T18:08:30.128Z,21.60
2017-06-25T18:10:56.629Z,21.60
2017-06-25T18:13:23.237Z,21.50
2017-06-25T18:15:49.820Z,21.30
2017-06-25T18:18:16.271Z,21.30
2017-06-25T18:20:42.792Z,21.20
2017-06-25T18:23:09.204Z,21.00
2017-06-25T18:25:35.604Z,21.00
2017-06-25T18:28:03.068Z,20.90
2017-06-25T18:30:29.485Z,20.80
2017-06-25T18:32:56.648Z,20.90
2017-06-25T18:35:23.228Z,20.80
2017-06-25T18:37:49.676Z,20.80
2017-06-25T18:40:16.117Z,20.80
2017-06-25T18:42:42.549Z,20.80
2017-06-25T18:45:08.963Z,20.90
2017-06-25T18:47:35.437Z,20.90
2017-06-25T18:50:01.989Z,20.90
2017-06-25T18:52:29.122Z,20.80
2017-06-25T18:54:55.531Z,20.80
2017-06-25T18:57:21.989Z,20.70
2017-06-25T18:59:48.428Z,20.60
2017-06-25T19:02:14.888Z,20.70
2017-06-25T19:04:41.308Z,20.70
2017-06-25T19:07:08.516Z,20.70
2017-06-25T19:09:35.025Z,20.70
2017-06-25T19:12:01.436Z,20.70
2017-06-25T19:14:28.585Z,20.60
2017-06-25T19:16:55.840Z,20.70
2017-06-25T19:19:23.018Z,20.70
2017-06-25T19:21:49.404Z,20.70
2017-06-25T19:24:15.852Z,20.80
2017-06-25T19:26:43.213Z,20.70
2017-06-25T19:29:09.776Z,20.70
2017-06-25T19:31:36.417Z,20.70
2017-06-25T19:34:02.919Z,20.70
2017-06-25T19:36:30.094Z,20.70
2017-06-25T19:38:56.556Z,20.60
2017-06-25T19:41:23.054Z,20.60
2017-06-25T19:43:49.464Z,20.60
2017-06-25T19:46:16.595Z,20.50
2017-06-25T19:48:43.152Z,20.50
2017-06-25T19:51:10.294Z,20.60
2017-06-25T19:53:37.427Z,20.60
2017-06-25T19:56:03.868Z,20.60
2017-06-25T19:58:30.363Z,20.60
2017-06-25T20:00:56.789Z,20.60
2017-06-25T20:03:23.227Z,20.60
2017-06-25T20:05:49.628Z,20.60
2017-06-25T20:08:16.140Z,20.60
2017-06-25T20:10:43.314Z,20.60
2017-06-25T20:13:10.068Z,20.60
2017-06-25T20:15:36.542Z,20.60
2017-06-25T20:18:03.865Z,20.50
2017-06-25T20:20:30.307Z,20.50
2017-06-25T20:22:56.724Z,20.50
2017-06-25T20:25:23.237Z,20.50
2017-06-25T20:27:49.740Z,20.40
2017-06-25T20:30:16.188Z,20.40
2017-06-25T20:32:43.387Z,20.40
2017-06-25T20:35:09.970Z,20.40
2017-06-25T20:37:36.468Z,20.30
2017-06-25T20:40:02.970Z,20.20
2017-06-25T20:42:29.403Z,20.20
2017-06-25T20:44:55.784Z,20.20
2017-06-25T20:47:22.236Z,20.20
2017-06-25T20:49:49.191Z,20.30
2017-06-25T20:52:16.328Z,20.40
2017-06-25T20:54:42.732Z,20.40
2017-06-25T20:57:09.207Z,20.30
2017-06-25T20:59:36.351Z,20.40
2017-06-25T21:02:03.525Z,20.40
2017-06-25T21:04:30.072Z,20.40
2017-06-25T21:06:56.540Z,20.50
2017-06-25T21:09:22.936Z,20.40
2017-06-25T21:11:49.400Z,20.40
2017-06-25T21:14:15.803Z,20.30
2017-06-25T21:16:42.190Z,20.40
2017-06-25T21:19:08.624Z,20.40
2017-06-25T21:21:35.012Z,20.40
2017-06-25T21:24:01.432Z,20.40
2017-06-25T21:26:27.835Z,20.40
2017-06-25T21:28:54.323Z,20.30
2017-06-25T21:31:20.779Z,20.30
2017-06-25T21:33:47.179Z,20.30
2017-06-25T21:36:13.569Z,20.30
2017-06-25T21:38:40.189Z,20.30
2017-06-25T21:41:06.579Z,20.20
2017-06-25T21:43:32.967Z,20.30
2017-06-25T21:46:00.120Z,20.30
2017-06-25T21:48:27.371Z,20.30
2017-06-25T21:50:54.516Z,20.30
2017-06-25T21:53:21.659Z,20.30
2017-06-25T21:55:48.093Z,20.30
2017-06-25T21:58:14.599Z,20.30
2017-06-25T22:00:41.013Z,20.30
2017-06-25T22:03:07.479Z,20.30
2017-06-25T22:05:33.865Z,20.30
2017-06-25T22:08:00.344Z,20.30
2017-06-25T22:10:26.768Z,20.30
2017-06-25T22:12:53.196Z,20.30
2017-06-25T22:15:19.615Z,20.20
2017-06-25T22:17:46.048Z,20.20
2017-06-25T22:20:12.508Z,20.30
2017-06-25T22:22:38.892Z,20.30
2017-06-25T22:25:05.289Z,20.30
2017-06-25T22:27:31.812Z,20.30
2017-06-25T22:29:58.208Z,20.30
2017-06-25T22:32:24.602Z,20.30
2017-06-25T22:34:51.793Z,20.20
2017-06-25T22:37:18.365Z,20.20
2017-06-25T22:39:44.792Z,20.20
2017-06-25T22:42:11.197Z,20.20
2017-06-25T22:44:37.765Z,20.20
2017-06-25T22:47:04.268Z,20.20
2017-06-25T22:49:30.689Z,20.20
2017-06-25T22:51:57.132Z,20.10
2017-06-25T22:54:23.535Z,20.00
2017-06-25T22:56:50.012Z,20.00
2017-06-25T22:59:16.465Z,20.10
2017-06-25T23:01:42.864Z,20.10
2017-06-25T23:04:09.255Z,20.10
2017-06-25T23:06:36.452Z,20.10
2017-06-25T23:09:02.971Z,20.10
2017-06-25T23:11:29.363Z,20.10
2017-06-25T23:13:55.788Z,20.10
2017-06-25T23:16:22.200Z,20.00
2017-06-25T23:18:48.663Z,20.00
2017-06-25T23:21:15.056Z,20.00
2017-06-25T23:23:41.459Z,20.00
2017-06-25T23:26:07.916Z,20.00
2017-06-25T23:28:34.363Z,19.90
2017-06-25T23:31:00.748Z,19.90
2017-06-25T23:33:27.253Z,19.90
2017-06-25T23:35:53.664Z,19.90
2017-06-25T23:38:20.124Z,19.90
2017-06-25T23:43:19.684Z,19.80
2017-06-25T23:45:46.116Z,19.70
2017-06-25T23:48:12.580Z,19.70
2017-06-25T23:50:38.973Z,19.70
2017-06-25T23:53:05.424Z,19.70
2017-06-25T23:55:31.824Z,19.70
2017-06-25T23:57:59.045Z,19.70
